Time;durP1;ratioP1;P1;durP2;ratioP2;P2;SDS_P1;SDS_P2;PMS_P1;PMS_P2;Temp;Humidity;BMP_temperature;BMP_pressure;BME280_temperature;BME280_humidity;BME280_pressure;Samples;Min_cycle;Max_cycle;Signal;HPM_P1;HPM_P2
2022/11/15 00:02:11;;;;;;;33.20;22.80;;;8.10;99.90;;;;;;5000849;28;20034;-75
2022/11/15 00:04:37;;;;;;;39.60;24.98;;;8.00;99.90;;;;;;4998745;28;20539;-74
2022/11/15 00:07:03;;;;;;;36.80;23.77;;;8.00;99.90;;;;;;4999228;28;20053;-75
2022/11/15 00:09:28;;;;;;;36.65;24.55;;;8.00;99.90;;;;;;5000292;28;20376;-75
2022/11/15 00:11:54;;;;;;;34.30;24.55;;;8.00;99.90;;;;;;4999877;28;20061;-75
2022/11/15 00:14:20;;;;;;;36.65;23.75;;;7.90;99.90;;;;;;5004625;28;20022;-75
2022/11/15 00:16:45;;;;;;;34.92;24.67;;;7.90;99.90;;;;;;5000246;28;20041;-75
2022/11/15 00:19:11;;;;;;;33.33;22.50;;;7.90;99.90;;;;;;4999371;28;20499;-74
2022/11/15 00:21:37;;;;;;;34.97;23.10;;;7.90;99.90;;;;;;4999892;28;20125;-74
2022/11/15 00:24:02;;;;;;;42.00;25.52;;;7.90;99.90;;;;;;4998495;28;20111;-74
2022/11/15 00:26:28;;;;;;;35.97;24.17;;;7.80;99.90;;;;;;4997427;28;20037;-75
2022/11/15 00:28:54;;;;;;;34.13;23.65;;;7.90;99.90;;;;;;4998770;28;20180;-74
2022/11/15 00:31:22;;;;;;;37.45;23.80;;;7.80;99.90;;;;;;5014467;28;20038;-75
2022/11/15 00:33:49;;;;;;;35.25;23.83;;;7.80;99.90;;;;;;4999349;28;20040;-74
2022/11/15 00:36:15;;;;;;;32.40;23.05;;;7.80;99.90;;;;;;5000333;28;20029;-74
2022/11/15 00:38:41;;;;;;;36.88;24.50;;;7.80;99.90;;;;;;4998773;28;20084;-74
2022/11/15 00:41:07;;;;;;;38.50;25.77;;;7.80;99.90;;;;;;4998739;28;20045;-74
2022/11/15 00:43:34;;;;;;;36.60;24.20;;;7.70;99.90;;;;;;4999305;28;20073;-74
2022/11/15 00:46:00;;;;;;;40.35;24.02;;;7.70;99.90;;;;;;4997429;28;20493;-75
2022/11/15 00:48:25;;;;;;;43.15;26.48;;;7.70;99.90;;;;;;4998309;28;20030;-75
2022/11/15 00:50:51;;;;;;;37.03;24.58;;;7.70;99.90;;;;;;5000312;28;20025;-74
2022/11/15 00:53:17;;;;;;;36.13;23.92;;;7.70;99.90;;;;;;4999055;28;20043;-74
2022/11/15 00:55:43;;;;;;;35.20;23.10;;;7.70;99.90;;;;;;5000715;28;20026;-74
2022/11/15 00:58:09;;;;;;;35.97;24.05;;;7.70;99.90;;;;;;4997824;28;20084;-74
2022/11/15 01:00:35;;;;;;;37.88;24.67;;;7.60;99.90;;;;;;5000100;28;20022;-74
2022/11/15 01:03:01;;;;;;;35.53;24.67;;;7.60;99.90;;;;;;4999900;28;20888;-75
2022/11/15 01:05:27;;;;;;;38.20;24.98;;;7.70;99.90;;;;;;4999616;28;20032;-74
2022/11/15 01:07:54;;;;;;;35.47;23.80;;;7.70;99.90;;;;;;4998838;28;20494;-75
2022/11/15 01:10:21;;;;;;;39.47;25.58;;;7.60;99.90;;;;;;5000061;28;20026;-75
2022/11/15 01:12:47;;;;;;;31.13;22.30;;;7.60;99.90;;;;;;4999822;28;20036;-76
2022/11/15 01:15:13;;;;;;;38.63;24.63;;;7.60;99.90;;;;;;4999758;28;20036;-76
2022/11/15 01:17:38;;;;;;;39.78;26.60;;;7.60;99.90;;;;;;5002839;28;20044;-76
2022/11/15 01:20:05;;;;;;;36.95;24.95;;;7.60;99.90;;;;;;4998076;28;20037;-76
2022/11/15 01:22:30;;;;;;;40.13;24.35;;;7.60;99.90;;;;;;4998622;28;20042;-76
2022/11/15 01:24:56;;;;;;;42.13;28.30;;;7.60;99.90;;;;;;4997941;28;20040;-77
2022/11/15 01:27:22;;;;;;;38.35;25.52;;;7.50;99.90;;;;;;4999171;28;20116;-75
2022/11/15 01:29:48;;;;;;;39.58;26.33;;;7.60;99.90;;;;;;5000078;28;20026;-76
2022/11/15 01:32:13;;;;;;;39.15;26.58;;;7.60;99.90;;;;;;4999874;28;20057;-77
2022/11/15 01:34:39;;;;;;;37.50;25.98;;;7.50;99.90;;;;;;4999199;28;20033;-74
2022/11/15 01:37:05;;;;;;;40.70;28.55;;;7.50;99.90;;;;;;4999247;28;20033;-73
2022/11/15 01:39:30;;;;;;;38.92;26.48;;;7.50;99.90;;;;;;4999394;28;20080;-75
2022/11/15 01:41:56;;;;;;;43.20;27.77;;;7.50;99.90;;;;;;4998298;28;20034;-74
2022/11/15 01:44:30;;;;;;;41.67;25.80;;;7.50;99.90;;;;;;4996775;28;20050;-74
2022/11/15 01:46:57;;;;;;;38.20;25.70;;;7.50;99.90;;;;;;4999363;28;20521;-73
2022/11/15 01:49:24;;;;;;;40.13;25.65;;;7.50;99.90;;;;;;4998649;28;20029;-74
2022/11/15 01:51:51;;;;;;;39.03;26.10;;;7.50;99.90;;;;;;4998204;28;20030;-75
2022/11/15 01:54:20;;;;;;;42.55;27.02;;;7.50;99.90;;;;;;4998706;28;20029;-74
2022/11/15 01:56:59;;;;;;;37.13;24.25;;;7.50;99.90;;;;;;5001226;28;20041;-75
2022/11/15 01:59:26;;;;;;;37.70;26.02;;;7.50;99.90;;;;;;5002314;28;20191;-74
2022/11/15 02:01:58;;;;;;;38.15;26.60;;;7.50;99.90;;;;;;4997944;28;20037;-74
2022/11/15 02:04:27;;;;;;;39.03;25.80;;;7.40;99.90;;;;;;5000538;28;20038;-73
2022/11/15 02:06:54;;;;;;;37.22;25.23;;;7.40;99.90;;;;;;4999702;28;20036;-73
2022/11/15 02:09:21;;;;;;;37.13;24.88;;;7.40;99.90;;;;;;5000747;28;20029;-75
2022/11/15 02:11:48;;;;;;;40.42;27.05;;;7.40;99.90;;;;;;5002149;28;20095;-74
2022/11/15 02:14:18;;;;;;;36.95;25.23;;;7.40;99.90;;;;;;5002407;28;20025;-73
2022/11/15 02:16:55;;;;;;;36.60;25.73;;;7.40;99.90;;;;;;5001982;28;20428;-73
2022/11/15 02:19:32;;;;;;;40.67;26.73;;;7.40;99.90;;;;;;5001522;28;20033;-73
2022/11/15 02:22:34;;;;;;;36.65;25.45;;;7.30;99.90;;;;;;5003298;28;20038;-73
2022/11/15 02:25:18;;;;;;;37.10;27.17;;;7.30;99.90;;;;;;5002507;28;20049;-73
2022/11/15 02:28:21;;;;;;;34.78;23.77;;;7.30;99.90;;;;;;5001197;28;20042;-73
2022/11/15 02:30:50;;;;;;;39.92;25.98;;;7.30;99.90;;;;;;5001573;28;20116;-73
2022/11/15 02:33:35;;;;;;;39.03;25.50;;;7.30;99.90;;;;;;4999961;28;20069;-74
2022/11/15 02:36:21;;;;;;;37.08;25.73;;;7.30;99.90;;;;;;5002943;28;20026;-75
2022/11/15 02:39:17;;;;;;;36.20;26.92;;;7.30;99.90;;;;;;5003812;28;20041;-75
2022/11/15 02:43:56;;;;;;;44.15;28.33;;;7.30;99.90;;;;;;5001374;28;20034;-75
2022/11/15 02:45:04;;;;;;;38.22;25.27;;;7.30;99.90;;;;;;5002329;28;20053;-75
2022/11/15 02:47:37;;;;;;;43.47;27.48;;;7.20;99.90;;;;;;5000373;28;20069;-75
2022/11/15 02:50:09;;;;;;;39.85;26.88;;;7.30;99.90;;;;;;5001925;28;20030;-74
2022/11/15 02:52:35;;;;;;;38.67;27.20;;;7.30;99.90;;;;;;5000969;28;20030;-71
2022/11/15 02:55:01;;;;;;;39.55;27.02;;;7.30;99.90;;;;;;5000105;28;20111;-72
2022/11/15 02:57:38;;;;;;;41.53;25.95;;;7.30;99.90;;;;;;5001357;28;20083;-73
2022/11/15 03:00:10;;;;;;;40.47;26.17;;;7.30;99.90;;;;;;5001176;28;20032;-73
2022/11/15 03:03:10;;;;;;;39.10;26.02;;;7.30;99.90;;;;;;5001804;28;20109;-73
2022/11/15 03:06:24;;;;;;;38.90;26.67;;;7.30;99.90;;;;;;5001053;28;20026;-73
2022/11/15 03:09:22;;;;;;;38.40;26.15;;;7.30;99.90;;;;;;5001138;28;20042;-73
2022/11/15 03:11:54;;;;;;;37.30;25.05;;;7.30;99.90;;;;;;5002329;28;20034;-73
2022/11/15 03:14:28;;;;;;;38.85;22.95;;;7.30;99.90;;;;;;5001353;28;20076;-71
2022/11/15 03:17:17;;;;;;;39.42;26.33;;;7.30;99.90;;;;;;5002811;28;20117;-74
2022/11/15 03:19:50;;;;;;;39.67;27.33;;;7.30;99.90;;;;;;5000644;28;20117;-74
2022/11/15 03:22:20;;;;;;;42.30;26.13;;;7.20;99.90;;;;;;5001801;28;20045;-74
2022/11/15 03:24:49;;;;;;;39.33;26.58;;;7.20;99.90;;;;;;5001998;28;20025;-74
2022/11/15 03:27:19;;;;;;;43.10;27.25;;;7.20;99.90;;;;;;5000100;28;20060;-75
2022/11/15 03:29:55;;;;;;;40.25;26.67;;;7.20;99.90;;;;;;5000469;28;20029;-74
2022/11/15 03:32:26;;;;;;;40.95;27.42;;;7.20;99.90;;;;;;4999978;28;20057;-74
2022/11/15 03:35:06;;;;;;;38.47;26.00;;;7.20;99.90;;;;;;4999898;28;20025;-74
2022/11/15 03:38:02;;;;;;;44.00;27.35;;;7.20;99.90;;;;;;5000434;28;20529;-75
2022/11/15 03:40:38;;;;;;;38.85;26.70;;;7.20;99.90;;;;;;5000082;28;20040;-74
2022/11/15 03:43:29;;;;;;;36.38;24.95;;;7.20;99.90;;;;;;5001780;28;20111;-74
2022/11/15 03:46:18;;;;;;;39.60;26.25;;;7.20;99.90;;;;;;4998220;28;20049;-74
2022/11/15 03:48:50;;;;;;;38.20;25.17;;;7.20;99.90;;;;;;5000241;28;20025;-74
2022/11/15 03:51:16;;;;;;;39.33;25.67;;;7.20;99.90;;;;;;4999448;28;20042;-74
2022/11/15 03:53:43;;;;;;;38.10;26.40;;;7.10;99.90;;;;;;4999266;28;20176;-74
2022/11/15 03:56:09;;;;;;;40.25;27.23;;;7.20;99.90;;;;;;4999935;28;20066;-74
2022/11/15 03:58:34;;;;;;;35.50;24.98;;;7.30;99.90;;;;;;4999890;28;20029;-74
2022/11/15 04:01:00;;;;;;;40.75;25.98;;;7.20;99.90;;;;;;5000923;28;20140;-74
2022/11/15 04:03:26;;;;;;;34.42;23.50;;;7.20;99.90;;;;;;4998857;28;20089;-74
2022/11/15 04:05:52;;;;;;;36.72;25.75;;;7.20;99.90;;;;;;5000421;28;20572;-74
2022/11/15 04:08:17;;;;;;;36.08;24.38;;;7.20;99.90;;;;;;5000530;28;20502;-74
2022/11/15 04:10:43;;;;;;;41.63;26.58;;;7.20;99.90;;;;;;4998592;28;20029;-74
2022/11/15 04:13:09;;;;;;;38.28;24.60;;;7.20;99.90;;;;;;4999813;28;20061;-74
2022/11/15 04:15:35;;;;;;;39.72;25.77;;;7.20;99.90;;;;;;5001163;28;20037;-75
2022/11/15 04:18:03;;;;;;;37.72;24.73;;;7.20;99.90;;;;;;5001157;28;20026;-74
2022/11/15 04:26:12;;;;;;;36.85;25.42;;;7.20;99.90;;;;;;5000627;28;20029;-72
2022/11/15 04:31:23;;;;;;;;;;;7.20;99.90;;;;;;4999654;28;20038;-74
2022/11/15 04:33:49;;;;;;;35.10;23.20;;;7.20;99.90;;;;;;4999215;28;19979;-73
2022/11/15 04:39:00;;;;;;;37.85;24.77;;;7.20;99.90;;;;;;4997794;28;20038;-74
2022/11/15 04:41:28;;;;;;;38.28;25.88;;;7.10;99.90;;;;;;4999998;28;20029;-74
2022/11/15 04:43:54;;;;;;;37.92;25.92;;;7.10;99.90;;;;;;4998950;28;20060;-74
2022/11/15 04:46:20;;;;;;;40.22;26.48;;;7.10;99.90;;;;;;4998001;28;20447;-73
2022/11/15 04:48:46;;;;;;;39.63;25.00;;;7.10;99.90;;;;;;4981569;28;20034;-74
2022/11/15 04:51:12;;;;;;;38.58;24.75;;;7.10;99.90;;;;;;4999700;28;20033;-74
2022/11/15 04:53:37;;;;;;;38.75;24.92;;;7.10;99.90;;;;;;4999310;28;20092;-75
2022/11/15 04:56:04;;;;;;;40.90;26.40;;;7.10;99.90;;;;;;4999274;28;20384;-74
2022/11/15 04:58:29;;;;;;;36.75;23.50;;;7.10;99.90;;;;;;4997608;28;20026;-74
2022/11/15 05:00:55;;;;;;;37.13;24.20;;;7.10;99.90;;;;;;4998543;28;20444;-75
2022/11/15 05:06:06;;;;;;;35.83;23.67;;;7.10;99.90;;;;;;4998384;28;20089;-74
2022/11/15 05:08:32;;;;;;;35.42;23.95;;;7.10;99.90;;;;;;5000320;28;20038;-74
2022/11/15 05:10:58;;;;;;;39.72;24.63;;;7.10;99.90;;;;;;4999630;28;20604;-74
2022/11/15 05:13:23;;;;;;;39.33;25.58;;;7.10;99.90;;;;;;5003424;28;20038;-74
2022/11/15 05:15:49;;;;;;;39.55;24.80;;;7.10;99.90;;;;;;4997774;28;20034;-74
2022/11/15 05:18:14;;;;;;;42.17;26.70;;;7.00;99.90;;;;;;4998455;28;20579;-74
2022/11/15 05:20:40;;;;;;;46.97;25.75;;;7.10;99.90;;;;;;5000900;28;20088;-75
2022/11/15 05:23:06;;;;;;;38.78;24.20;;;7.10;99.90;;;;;;4998441;28;20037;-75
2022/11/15 05:25:31;;;;;;;36.47;24.33;;;7.10;99.90;;;;;;5000039;28;20026;-75
2022/11/15 05:27:57;;;;;;;38.28;23.95;;;7.10;99.90;;;;;;4998370;28;20555;-75
2022/11/15 05:30:25;;;;;;;38.63;25.10;;;7.10;99.90;;;;;;4997837;28;20030;-75
2022/11/15 05:32:50;;;;;;;37.83;24.95;;;7.10;99.90;;;;;;4998847;28;20559;-74
2022/11/15 05:35:42;;;;;;;37.75;25.40;;;7.20;99.90;;;;;;4998295;28;20046;-74
2022/11/15 05:38:08;;;;;;;36.53;24.70;;;7.10;99.90;;;;;;4997628;28;20786;-74
2022/11/15 05:40:34;;;;;;;39.97;25.08;;;7.10;99.90;;;;;;4998085;28;20038;-74
2022/11/15 05:43:03;;;;;;;40.58;26.70;;;7.10;99.90;;;;;;4999758;28;20049;-74
2022/11/15 05:45:29;;;;;;;43.85;25.58;;;7.10;99.90;;;;;;5002929;28;20440;-75
2022/11/15 05:47:57;;;;;;;49.15;28.77;;;7.10;99.90;;;;;;5001835;28;20375;-74
2022/11/15 05:50:23;;;;;;;42.58;27.65;;;7.10;99.90;;;;;;5003261;28;20036;-74
2022/11/15 05:52:49;;;;;;;41.00;27.92;;;7.10;99.90;;;;;;5001622;28;20033;-74
2022/11/15 05:55:15;;;;;;;44.78;29.55;;;7.20;99.90;;;;;;5002711;28;20029;-74
2022/11/15 05:57:41;;;;;;;44.28;29.38;;;7.10;99.90;;;;;;5000952;28;20121;-73
2022/11/15 06:00:08;;;;;;;41.33;28.63;;;7.10;99.90;;;;;;5003541;28;20168;-75
2022/11/15 06:02:33;;;;;;;42.28;28.85;;;7.10;99.90;;;;;;5002476;28;20038;-72
2022/11/15 06:04:59;;;;;;;43.28;28.13;;;7.10;99.90;;;;;;5003217;28;20046;-72
2022/11/15 06:07:25;;;;;;;43.40;27.00;;;7.10;99.90;;;;;;5001467;28;20082;-71
2022/11/15 06:09:50;;;;;;;41.80;26.08;;;7.10;99.90;;;;;;5008707;28;20029;-73
2022/11/15 06:12:16;;;;;;;40.17;24.77;;;7.10;99.90;;;;;;5004442;28;20037;-74
2022/11/15 06:14:43;;;;;;;41.42;25.80;;;7.10;99.90;;;;;;5001557;28;20029;-73
2022/11/15 06:17:08;;;;;;;41.53;26.50;;;7.10;99.90;;;;;;5002070;28;20456;-73
2022/11/15 06:19:34;;;;;;;40.78;26.00;;;7.10;99.90;;;;;;5002202;28;20025;-73
2022/11/15 06:21:59;;;;;;;41.35;27.30;;;7.10;99.90;;;;;;5002243;28;20532;-73
2022/11/15 06:24:25;;;;;;;40.47;25.83;;;7.10;99.90;;;;;;5001882;28;20190;-74
2022/11/15 06:26:51;;;;;;;39.75;24.55;;;7.10;99.90;;;;;;5002282;28;20025;-73
2022/11/15 06:29:17;;;;;;;38.50;24.73;;;7.10;99.90;;;;;;5001585;28;20038;-71
2022/11/15 06:31:43;;;;;;;39.47;23.08;;;7.10;99.90;;;;;;5000415;28;20084;-73
2022/11/15 06:34:09;;;;;;;36.58;25.13;;;7.10;99.90;;;;;;5001487;28;20026;-73
2022/11/15 06:36:36;;;;;;;42.40;25.23;;;7.10;99.90;;;;;;5003162;28;20027;-74
2022/11/15 06:39:05;;;;;;;36.63;23.05;;;7.10;99.90;;;;;;5001195;28;20095;-72
2022/11/15 06:41:35;;;;;;;36.97;24.40;;;7.10;99.90;;;;;;5001733;28;20042;-73
2022/11/15 06:44:01;;;;;;;34.22;22.75;;;7.10;99.90;;;;;;5001758;28;20050;-72
2022/11/15 06:46:26;;;;;;;37.92;23.75;;;7.00;99.90;;;;;;5000388;28;20034;-74
2022/11/15 06:48:53;;;;;;;37.65;24.85;;;7.10;99.90;;;;;;5000293;28;20037;-76
2022/11/15 06:51:18;;;;;;;38.80;25.65;;;7.10;99.90;;;;;;4999492;28;20117;-69
2022/11/15 06:53:45;;;;;;;33.80;24.25;;;7.00;99.90;;;;;;5001230;28;20040;-73
2022/11/15 06:56:11;;;;;;;41.35;25.98;;;7.10;99.90;;;;;;5001518;28;20025;-75
2022/11/15 06:58:37;;;;;;;38.70;24.73;;;7.00;99.90;;;;;;5001610;28;20033;-74
2022/11/15 07:01:05;;;;;;;38.38;24.77;;;7.10;99.90;;;;;;5003722;28;20038;-73
2022/11/15 07:03:33;;;;;;;38.22;24.85;;;7.10;99.90;;;;;;4999915;28;20057;-73
2022/11/15 07:05:59;;;;;;;40.50;26.10;;;7.10;99.90;;;;;;5000400;28;20026;-75
2022/11/15 07:08:28;;;;;;;41.35;24.92;;;7.10;99.90;;;;;;5001651;28;20436;-74
2022/11/15 07:10:59;;;;;;;37.33;25.85;;;7.10;99.90;;;;;;5001028;28;20789;-74
2022/11/15 07:13:26;;;;;;;42.83;27.73;;;7.20;99.90;;;;;;5000528;28;20109;-76
2022/11/15 07:15:52;;;;;;;41.42;24.90;;;7.20;99.90;;;;;;5005281;28;20033;-74
2022/11/15 07:18:17;;;;;;;41.00;26.90;;;7.20;99.90;;;;;;5002066;28;20026;-73
2022/11/15 07:20:43;;;;;;;38.30;25.77;;;7.20;99.90;;;;;;5001572;28;20539;-73
2022/11/15 07:23:08;;;;;;;38.45;25.92;;;7.20;99.90;;;;;;5000396;28;20056;-73
2022/11/15 07:25:34;;;;;;;39.20;25.42;;;7.30;99.90;;;;;;5000335;28;20061;-72
2022/11/15 07:28:02;;;;;;;39.55;26.77;;;7.30;99.90;;;;;;4999618;28;20067;-73
2022/11/15 07:30:28;;;;;;;42.03;27.00;;;7.30;99.90;;;;;;5017579;28;20025;-73
2022/11/15 07:33:00;;;;;;;40.08;25.48;;;7.40;99.90;;;;;;4999804;28;20022;-73
2022/11/15 07:35:32;;;;;;;40.58;26.58;;;7.40;99.90;;;;;;5000593;28;20093;-73
2022/11/15 07:37:59;;;;;;;42.70;28.20;;;7.50;99.90;;;;;;4999815;28;20017;-73
2022/11/15 07:40:27;;;;;;;42.13;27.95;;;7.50;99.90;;;;;;5002174;28;20034;-73
2022/11/15 07:42:59;;;;;;;39.92;28.63;;;7.50;99.90;;;;;;5000996;28;20104;-73
2022/11/15 07:45:28;;;;;;;42.78;28.85;;;7.60;99.90;;;;;;5002842;28;20409;-73
2022/11/15 07:48:14;;;;;;;40.17;27.02;;;7.50;99.90;;;;;;4998066;28;20088;-73
2022/11/15 07:50:59;;;;;;;40.78;27.33;;;7.60;99.90;;;;;;5001973;28;20037;-73
2022/11/15 07:53:45;;;;;;;43.92;27.75;;;7.70;99.90;;;;;;5000391;28;20045;-73
2022/11/15 07:56:31;;;;;;;40.75;27.92;;;7.70;99.90;;;;;;5000077;28;20105;-73
2022/11/15 07:59:19;;;;;;;42.83;30.33;;;7.70;99.90;;;;;;4997359;28;20037;-72
2022/11/15 08:02:05;;;;;;;41.90;29.35;;;7.80;99.90;;;;;;5000430;28;20048;-72
2022/11/15 08:04:51;;;;;;;44.67;30.98;;;7.80;99.90;;;;;;5002595;28;20036;-73
2022/11/15 08:07:37;;;;;;;41.78;27.60;;;7.90;99.90;;;;;;4999843;28;20045;-72
2022/11/15 08:10:07;;;;;;;43.17;29.33;;;7.90;99.90;;;;;;5000724;28;20026;-73
2022/11/15 08:12:32;;;;;;;45.65;29.48;;;8.00;99.90;;;;;;5005661;28;20041;-73
2022/11/15 08:14:58;;;;;;;43.38;29.95;;;8.00;99.90;;;;;;5000550;28;20397;-73
2022/11/15 08:17:24;;;;;;;41.00;28.23;;;8.10;99.90;;;;;;5002245;28;20033;-74
2022/11/15 08:19:50;;;;;;;41.15;29.23;;;8.00;99.90;;;;;;5001718;28;20067;-74
2022/11/15 08:22:19;;;;;;;40.83;27.55;;;8.20;99.90;;;;;;4999026;28;20506;-74
2022/11/15 08:24:45;;;;;;;41.75;28.10;;;8.20;99.90;;;;;;5000933;28;20022;-74
2022/11/15 08:27:16;;;;;;;42.90;28.17;;;8.30;99.90;;;;;;4989581;28;20508;-74
2022/11/15 08:29:43;;;;;;;47.28;27.85;;;8.30;99.90;;;;;;5001014;28;20054;-73
2022/11/15 08:32:10;;;;;;;44.67;30.35;;;8.40;99.90;;;;;;5000866;28;20026;-76
2022/11/15 08:34:35;;;;;;;40.90;29.08;;;8.40;99.90;;;;;;5001121;28;20084;-74
2022/11/15 08:37:01;;;;;;;44.25;29.55;;;8.50;99.90;;;;;;5002659;28;20034;-74
2022/11/15 08:39:27;;;;;;;44.13;28.13;;;8.60;99.90;;;;;;5001616;28;20029;-73
2022/11/15 08:41:53;;;;;;;40.08;27.50;;;8.70;99.90;;;;;;5002638;28;20037;-73
2022/11/15 08:44:19;;;;;;;42.70;28.02;;;8.70;99.90;;;;;;5006813;28;20076;-76
2022/11/15 08:46:49;;;;;;;41.00;26.75;;;8.80;99.90;;;;;;5013795;28;20038;-75
2022/11/15 08:49:15;;;;;;;39.75;28.08;;;8.80;99.90;;;;;;5010617;28;20714;-74
2022/11/15 08:51:41;;;;;;;42.20;29.42;;;8.90;99.90;;;;;;5005304;28;20038;-76
2022/11/15 08:54:07;;;;;;;40.95;28.45;;;8.90;99.90;;;;;;5007273;28;20117;-73
2022/11/15 08:56:32;;;;;;;37.65;26.65;;;9.00;99.90;;;;;;5002232;28;20369;-74
2022/11/15 08:58:58;;;;;;;39.55;26.77;;;9.00;99.90;;;;;;5002106;28;20529;-76
2022/11/15 09:01:24;;;;;;;39.65;27.33;;;9.10;99.90;;;;;;5004161;28;20030;-73
2022/11/15 09:03:49;;;;;;;40.92;26.67;;;9.20;99.90;;;;;;5011591;28;20030;-73
2022/11/15 09:06:15;;;;;;;39.50;25.73;;;9.30;99.90;;;;;;5010610;28;20034;-74
2022/11/15 09:08:41;;;;;;;38.83;27.10;;;9.30;99.90;;;;;;5003652;28;20449;-74
2022/11/15 09:11:09;;;;;;;38.65;24.70;;;9.40;99.90;;;;;;5004126;28;20037;-74
2022/11/15 09:13:39;;;;;;;37.63;24.23;;;9.40;99.90;;;;;;5000022;28;20030;-74
2022/11/15 09:16:05;;;;;;;37.00;24.13;;;9.50;99.90;;;;;;4999398;28;20038;-74
2022/11/15 09:18:31;;;;;;;35.50;24.58;;;9.50;99.90;;;;;;4999981;28;20397;-73
2022/11/15 09:20:58;;;;;;;35.72;23.48;;;9.60;99.90;;;;;;4999777;28;20041;-74
2022/11/15 09:23:25;;;;;;;29.17;21.77;;;9.70;99.90;;;;;;4999280;28;20042;-74
2022/11/15 09:25:53;;;;;;;32.15;20.92;;;9.80;99.90;;;;;;5002065;28;20026;-73
2022/11/15 09:28:18;;;;;;;31.17;21.40;;;9.80;99.90;;;;;;4991416;28;20026;-73
2022/11/15 09:30:44;;;;;;;31.10;21.45;;;9.90;99.90;;;;;;4999088;28;20496;-73
2022/11/15 09:33:11;;;;;;;34.30;22.33;;;9.90;99.90;;;;;;5002315;28;20091;-74
2022/11/15 09:35:38;;;;;;;31.40;20.75;;;10.00;99.90;;;;;;4998714;28;20030;-72
2022/11/15 09:38:04;;;;;;;29.77;19.52;;;10.10;99.90;;;;;;4997273;28;20087;-73
2022/11/15 09:40:31;;;;;;;31.52;22.45;;;10.20;99.90;;;;;;4999688;28;20026;-73
2022/11/15 09:43:27;;;;;;;34.50;21.15;;;10.20;99.90;;;;;;4997873;28;20099;-73
2022/11/15 09:46:12;;;;;;;27.50;20.10;;;10.30;99.90;;;;;;4999250;28;20104;-72
2022/11/15 09:48:53;;;;;;;33.13;20.02;;;10.40;99.90;;;;;;5000308;28;20029;-73
2022/11/15 09:51:26;;;;;;;30.05;20.88;;;10.40;99.90;;;;;;4999266;28;20038;-72
2022/11/15 09:54:07;;;;;;;26.02;17.90;;;10.50;99.90;;;;;;5000005;28;20026;-72
2022/11/15 09:56:39;;;;;;;25.63;16.92;;;10.60;99.90;;;;;;4999968;28;20072;-72
2022/11/15 09:59:29;;;;;;;25.42;17.75;;;10.60;99.90;;;;;;4998972;28;20047;-72
2022/11/15 10:02:20;;;;;;;27.08;18.23;;;10.70;99.90;;;;;;4998672;28;20121;-73
2022/11/15 10:04:46;;;;;;;25.05;16.52;;;10.70;99.90;;;;;;4997483;28;20029;-74
2022/11/15 10:07:33;;;;;;;28.90;19.63;;;10.80;99.90;;;;;;4998672;28;20104;-73
2022/11/15 10:10:18;;;;;;;24.90;15.93;;;10.90;99.90;;;;;;5000544;28;20038;-73
2022/11/15 10:12:47;;;;;;;25.83;16.15;;;10.90;99.90;;;;;;4999089;28;20038;-73
2022/11/15 10:15:16;;;;;;;22.10;16.77;;;11.00;99.90;;;;;;4997775;28;20054;-74
2022/11/15 10:18:05;;;;;;;20.60;15.35;;;11.10;99.90;;;;;;5000430;28;20053;-73
2022/11/15 10:20:48;;;;;;;22.98;16.00;;;11.10;99.90;;;;;;4998890;28;20417;-73
2022/11/15 10:23:19;;;;;;;24.13;16.50;;;11.10;99.90;;;;;;4998136;28;20049;-73
2022/11/15 10:25:45;;;;;;;22.95;15.75;;;11.20;99.90;;;;;;4999539;28;20163;-74
2022/11/15 10:28:20;;;;;;;25.23;17.05;;;11.30;99.90;;;;;;4998839;28;20116;-72
2022/11/15 10:30:47;;;;;;;;;;;11.30;99.90;;;;;;5003319;28;20515;-75
2022/11/15 10:33:36;;;;;;;20.40;14.27;;;11.40;99.90;;;;;;4999879;28;19914;-74
2022/11/15 10:36:08;;;;;;;22.05;14.77;;;11.40;99.90;;;;;;5003034;28;20455;-73
2022/11/15 10:38:49;;;;;;;27.27;16.60;;;11.50;99.90;;;;;;5002345;28;20036;-74
2022/11/15 10:41:17;;;;;;;22.88;15.90;;;11.50;99.90;;;;;;5001854;28;20104;-74
2022/11/15 10:43:44;;;;;;;19.77;14.95;;;11.60;99.90;;;;;;4998118;28;20128;-74
2022/11/15 10:46:23;;;;;;;21.92;15.45;;;11.60;99.90;;;;;;4999873;28;20034;-73
2022/11/15 10:48:49;;;;;;;21.77;15.85;;;11.70;99.90;;;;;;5000998;28;20048;-74
2022/11/15 10:51:28;;;;;;;23.63;15.65;;;11.80;99.90;;;;;;5000557;28;20458;-75
2022/11/15 10:53:58;;;;;;;24.35;14.20;;;11.80;99.90;;;;;;5004148;28;20080;-74
2022/11/15 10:56:26;;;;;;;20.08;13.68;;;11.90;99.90;;;;;;5000915;28;20034;-74
2022/11/15 10:58:57;;;;;;;22.27;15.00;;;11.90;99.90;;;;;;5000512;28;20046;-75
2022/11/15 11:01:25;;;;;;;18.02;13.70;;;12.00;99.90;;;;;;4999872;28;20030;-73
2022/11/15 11:04:09;;;;;;;23.73;15.65;;;12.00;99.90;;;;;;5000786;28;20030;-74
2022/11/15 11:06:49;;;;;;;20.48;14.48;;;12.10;99.90;;;;;;5001539;28;20385;-74
2022/11/15 11:09:36;;;;;;;19.73;14.70;;;12.10;99.90;;;;;;5001900;28;20110;-74
2022/11/15 11:12:03;;;;;;;19.73;15.13;;;12.20;99.90;;;;;;5001754;28;20034;-74
2022/11/15 11:14:35;;;;;;;21.10;14.82;;;12.30;99.90;;;;;;5001108;28;20103;-74
2022/11/15 11:17:21;;;;;;;21.60;15.30;;;12.30;99.90;;;;;;5000524;28;20026;-74
2022/11/15 11:20:32;;;;;;;21.70;14.75;;;12.40;99.90;;;;;;5000222;28;20044;-75
2022/11/15 11:23:06;;;;;;;20.95;14.85;;;12.40;99.90;;;;;;5000937;28;21500;-74
2022/11/15 11:26:00;;;;;;;19.30;14.30;;;12.50;99.90;;;;;;4999645;28;20107;-73
2022/11/15 11:28:41;;;;;;;18.67;13.85;;;12.50;99.90;;;;;;5016772;28;20039;-72
2022/11/15 11:31:23;;;;;;;19.30;13.52;;;12.50;99.90;;;;;;4998766;28;20029;-73
2022/11/15 11:34:45;;;;;;;21.33;14.52;;;12.60;99.90;;;;;;5000205;28;20034;-72
2022/11/15 11:37:28;;;;;;;21.52;14.13;;;12.60;99.90;;;;;;5001415;28;20872;-72
2022/11/15 11:40:12;;;;;;;17.95;13.23;;;12.70;99.90;;;;;;4999979;28;20554;-73
2022/11/15 11:42:47;;;;;;;19.30;14.15;;;12.70;99.90;;;;;;4998826;28;20135;-73
2022/11/15 11:45:57;;;;;;;17.67;13.85;;;12.80;99.90;;;;;;4999873;28;20081;-73
2022/11/15 11:48:30;;;;;;;20.20;13.65;;;12.80;99.90;;;;;;5002895;28;20509;-73
2022/11/15 11:51:21;;;;;;;18.50;14.10;;;12.90;99.90;;;;;;5000200;28;20038;-74
2022/11/15 11:54:09;;;;;;;21.45;14.88;;;12.90;99.90;;;;;;5002452;28;20922;-75
2022/11/15 11:56:39;;;;;;;18.17;13.55;;;13.00;99.90;;;;;;5004102;28;20589;-73
2022/11/15 11:59:45;;;;;;;21.40;14.40;;;13.00;99.90;;;;;;4999067;28;20923;-73
2022/11/15 12:02:40;;;;;;;19.08;13.48;;;13.00;99.90;;;;;;4998356;28;20034;-73
2022/11/15 12:05:39;;;;;;;18.35;13.25;;;13.10;99.90;;;;;;4998819;28;20378;-73
2022/11/15 12:08:41;;;;;;;17.52;12.82;;;13.10;99.90;;;;;;4999053;28;20857;-73
2022/11/15 12:11:29;;;;;;;20.13;12.82;;;13.20;99.90;;;;;;5000095;28;21721;-73
2022/11/15 12:14:05;;;;;;;17.55;13.93;;;13.20;99.90;;;;;;5005587;28;20125;-73
2022/11/15 12:16:33;;;;;;;19.63;15.02;;;13.30;99.90;;;;;;4998962;28;20497;-72
2022/11/15 12:19:02;;;;;;;27.88;14.40;;;13.30;99.90;;;;;;5002139;28;20312;-73
2022/11/15 12:21:34;;;;;;;18.90;15.10;;;13.30;99.90;;;;;;4999409;28;20029;-74
2022/11/15 12:24:06;;;;;;;16.95;13.38;;;13.40;99.90;;;;;;5000911;28;20134;-73
2022/11/15 12:26:46;;;;;;;18.38;12.93;;;13.40;99.90;;;;;;5000777;28;20713;-73
2022/11/15 12:29:23;;;;;;;23.15;14.95;;;13.40;99.90;;;;;;4999842;28;20042;-72
2022/11/15 12:31:52;;;;;;;19.17;14.02;;;13.50;99.90;;;;;;5009003;28;21606;-73
2022/11/15 12:34:20;;;;;;;19.38;14.52;;;13.50;99.90;;;;;;4991608;28;20036;-73
2022/11/15 12:36:47;;;;;;;19.52;14.57;;;13.50;99.90;;;;;;4999107;28;20030;-75
2022/11/15 12:39:15;;;;;;;20.27;14.73;;;13.60;99.90;;;;;;5000146;28;20041;-73
2022/11/15 12:41:55;;;;;;;18.75;13.80;;;13.60;99.90;;;;;;4998133;28;20512;-73
2022/11/15 12:44:46;;;;;;;18.67;14.43;;;13.70;99.80;;;;;;4999662;28;20137;-73
2022/11/15 12:47:24;;;;;;;19.15;14.10;;;13.70;99.80;;;;;;4999272;28;22725;-73
2022/11/15 12:49:51;;;;;;;17.70;14.25;;;13.70;99.80;;;;;;5000594;28;20022;-74
2022/11/15 12:52:18;;;;;;;26.83;14.88;;;13.70;99.70;;;;;;4999530;28;20034;-74
2022/11/15 12:54:57;;;;;;;19.13;14.63;;;13.80;99.70;;;;;;4999412;28;20493;-73
2022/11/15 12:57:32;;;;;;;15.77;12.13;;;13.80;99.60;;;;;;4998613;28;20040;-74
2022/11/15 13:00:02;;;;;;;18.95;13.40;;;13.80;99.50;;;;;;4998614;28;20036;-73
2022/11/15 13:02:29;;;;;;;18.88;14.23;;;13.80;99.50;;;;;;4998598;28;20038;-74
2022/11/15 13:05:15;;;;;;;19.48;13.93;;;13.90;99.50;;;;;;4998977;28;20044;-73
2022/11/15 13:07:41;;;;;;;18.58;14.35;;;13.90;99.40;;;;;;4998427;28;20117;-72
2022/11/15 13:10:09;;;;;;;19.95;14.77;;;13.90;99.40;;;;;;4997167;28;20040;-73
2022/11/15 13:12:38;;;;;;;19.38;14.02;;;14.00;99.30;;;;;;4997950;28;20151;-71
2022/11/15 13:15:13;;;;;;;18.92;14.48;;;14.00;99.30;;;;;;4996892;28;20033;-71